createdAt,value
2019-05-07T00:01:23.263Z,99602.93
2019-05-07T00:03:54.681Z,99603.87
2019-05-07T00:06:25.914Z,99596.80
2019-05-07T00:08:57.556Z,99596.25
2019-05-07T00:11:28.888Z,99608.84
2019-05-07T00:14:00.134Z,99607.94
2019-05-07T00:16:32.520Z,99607.65
2019-05-07T00:19:03.656Z,99603.38
2019-05-07T00:21:35.010Z,99604.16
2019-05-07T00:24:06.942Z,99608.84
2019-05-07T00:26:39.606Z,99604.66
2019-05-07T00:29:12.986Z,99607.25
2019-05-07T00:31:44.213Z,99607.25
2019-05-07T00:34:17.253Z,99606.66
2019-05-07T00:37:08.421Z,99604.33
2019-05-07T00:39:42.421Z,99601.86
2019-05-07T00:42:22.077Z,99603.80
2019-05-07T00:45:16.859Z,99607.25
2019-05-07T00:47:36.685Z,99604.29
2019-05-07T00:50:09.654Z,99603.58
2019-05-07T00:52:42.963Z,99597.99
2019-05-07T00:55:14.098Z,99598.08
2019-05-07T00:57:45.557Z,99597.34
2019-05-07T01:00:16.700Z,99591.39
2019-05-07T01:02:47.801Z,99592.91
2019-05-07T01:05:19.316Z,99591.11
2019-05-07T01:07:52.769Z,99589.80
2019-05-07T01:10:23.851Z,99589.55
2019-05-07T01:12:55.328Z,99590.94
2019-05-07T01:15:31.005Z,99585.68
2019-05-07T01:17:59.961Z,99587.66
2019-05-07T01:20:32.950Z,99587.13
2019-05-07T01:23:03.994Z,99578.21
2019-05-07T01:25:35.443Z,99569.39
2019-05-07T01:28:06.683Z,99566.84
2019-05-07T01:30:38.349Z,99566.63
2019-05-07T01:33:12.240Z,99573.45
2019-05-07T01:35:45.085Z,99570.36
2019-05-07T01:38:17.832Z,99565.36
2019-05-07T01:40:49.293Z,99567.57
2019-05-07T01:43:22.654Z,99566.47
2019-05-07T01:45:53.737Z,99568.31
2019-05-07T01:48:24.636Z,99578.12
2019-05-07T01:50:56.045Z,99577.52
2019-05-07T01:53:27.379Z,99576.69
2019-05-07T01:55:58.795Z,99575.34
2019-05-07T01:58:30.195Z,99567.74
2019-05-07T02:01:02.825Z,99571.03
2019-05-07T02:03:52.838Z,99563.59
2019-05-07T02:06:25.726Z,99569.55
2019-05-07T02:09:10.229Z,99567.23
2019-05-07T02:11:46.486Z,99561.73
2019-05-07T02:14:18.140Z,99563.75
2019-05-07T02:16:49.491Z,99562.48
2019-05-07T02:19:22.021Z,99557.64
2019-05-07T02:21:53.326Z,99560.44
2019-05-07T02:24:24.576Z,99567.62
2019-05-07T02:26:55.924Z,99561.13
2019-05-07T02:29:27.388Z,99561.50
2019-05-07T02:31:58.802Z,99563.19
2019-05-07T02:34:30.219Z,99560.59
2019-05-07T02:37:04.466Z,99566.71
2019-05-07T02:39:37.304Z,99561.98
2019-05-07T02:42:09.482Z,99557.84
2019-05-07T02:44:58.445Z,99563.97
2019-05-07T02:47:33.094Z,99565.11
2019-05-07T02:50:09.477Z,99567.42
2019-05-07T02:52:53.762Z,99569.14
2019-05-07T02:55:28.273Z,99568.77
2019-05-07T02:58:03.237Z,99562.16
2019-05-07T03:00:33.347Z,99560.39
2019-05-07T03:03:04.825Z,99562.68
2019-05-07T03:05:36.185Z,99564.49
2019-05-07T03:08:07.570Z,99564.69
2019-05-07T03:10:38.797Z,99561.30
2019-05-07T03:13:13.440Z,99562.45
2019-05-07T03:15:43.746Z,99559.77
2019-05-07T03:18:18.812Z,99558.27
2019-05-07T03:20:49.529Z,99554.45
2019-05-07T03:23:22.963Z,99558.83
2019-05-07T03:25:55.704Z,99568.72
2019-05-07T03:28:27.270Z,99564.09
2019-05-07T03:31:05.751Z,99571.52
2019-05-07T03:33:37.332Z,99570.77
2019-05-07T03:36:09.532Z,99569.19
2019-05-07T03:38:43.732Z,99570.41
2019-05-07T03:41:13.954Z,99574.77
2019-05-07T03:43:45.309Z,99577.67
2019-05-07T03:46:18.249Z,99576.48
2019-05-07T03:48:49.523Z,99576.97
2019-05-07T03:51:23.538Z,99580.13
2019-05-07T03:53:54.350Z,99579.69
2019-05-07T03:56:25.445Z,99581.05
2019-05-07T03:58:57.045Z,99581.79
2019-05-07T04:01:28.481Z,99578.80
2019-05-07T04:03:59.791Z,99584.05
2019-05-07T04:06:33.215Z,99579.75
2019-05-07T04:09:05.476Z,99584.10
2019-05-07T04:11:36.531Z,99583.48
2019-05-07T04:14:09.314Z,99583.63
2019-05-07T04:16:40.359Z,99575.84
2019-05-07T04:19:13.246Z,99579.07
2019-05-07T04:21:44.600Z,99580.09
2019-05-07T04:24:17.597Z,99578.20
2019-05-07T04:26:53.503Z,99588.30
2019-05-07T04:29:23.470Z,99590.39
2019-05-07T04:31:54.621Z,99582.66
2019-05-07T04:34:45.777Z,99580.73
2019-05-07T04:37:17.085Z,99587.40
2019-05-07T04:39:54.302Z,99579.94
2019-05-07T04:42:25.664Z,99584.81
2019-05-07T04:44:57.152Z,99578.94
2019-05-07T04:47:38.453Z,99578.78
2019-05-07T04:50:03.833Z,99584.98
2019-05-07T04:52:39.023Z,99587.28
2019-05-07T04:55:13.580Z,99575.33
2019-05-07T04:57:43.843Z,99583.53
2019-05-07T05:00:16.485Z,99582.20
2019-05-07T05:02:55.193Z,99574.13
2019-05-07T05:05:26.645Z,99574.50
2019-05-07T05:07:57.995Z,99576.07
2019-05-07T05:10:29.242Z,99574.72
2019-05-07T05:13:02.933Z,99580.70
2019-05-07T05:15:33.272Z,99575.50
2019-05-07T05:18:04.318Z,99571.71
2019-05-07T05:20:37.368Z,99576.97
2019-05-07T05:23:13.164Z,99574.03
2019-05-07T05:25:45.032Z,99575.33
2019-05-07T05:28:16.280Z,99572.32
2019-05-07T05:30:49.939Z,99568.96
2019-05-07T05:33:23.407Z,99559.78
2019-05-07T05:35:54.225Z,99560.22
2019-05-07T05:38:25.370Z,99558.97
2019-05-07T05:40:56.926Z,99561.08
2019-05-07T05:43:31.930Z,99568.95
2019-05-07T05:46:12.066Z,99564.11
2019-05-07T05:48:43.594Z,99563.75
2019-05-07T05:51:33.061Z,99565.83
2019-05-07T05:54:15.261Z,99563.89
2019-05-07T05:56:52.007Z,99563.02
2019-05-07T05:59:32.490Z,99561.78
2019-05-07T06:02:14.501Z,99557.09
2019-05-07T06:04:56.216Z,99554.13
2019-05-07T06:07:42.737Z,99546.28
2019-05-07T06:10:15.715Z,99546.79
2019-05-07T06:12:52.360Z,99552.92
2019-05-07T06:15:25.384Z,99545.42
2019-05-07T06:17:58.401Z,99540.70
2019-05-07T06:20:32.073Z,99541.95
2019-05-07T06:23:12.878Z,99544.21
2019-05-07T06:25:45.029Z,99539.52
2019-05-07T06:28:16.175Z,99536.78
2019-05-07T06:30:47.216Z,99529.81
2019-05-07T06:33:18.670Z,99532.87
2019-05-07T06:35:51.909Z,99534.61
2019-05-07T06:38:24.005Z,99531.73
2019-05-07T06:40:59.996Z,99529.51
2019-05-07T06:43:32.947Z,99526.70
2019-05-07T06:46:05.672Z,99535.16
2019-05-07T06:48:42.313Z,99529.20
2019-05-07T06:51:09.989Z,99532.80
2019-05-07T06:53:42.256Z,99531.66
2019-05-07T06:56:13.538Z,99526.05
2019-05-07T06:58:49.085Z,99524.28
2019-05-07T07:01:24.714Z,99523.52
2019-05-07T07:04:10.032Z,99525.05
2019-05-07T07:06:49.052Z,99519.32
2019-05-07T07:09:27.506Z,99520.06
2019-05-07T07:12:02.020Z,99518.34
2019-05-07T07:14:34.160Z,99517.88
2019-05-07T07:17:05.417Z,99509.29
2019-05-07T07:19:36.771Z,99511.02
2019-05-07T07:22:08.260Z,99509.98
2019-05-07T07:24:39.654Z,99506.89
2019-05-07T07:27:13.164Z,99503.84
2019-05-07T07:30:03.681Z,99496.80
2019-05-07T07:32:36.771Z,99505.52
2019-05-07T07:35:09.972Z,99503.25
2019-05-07T07:37:43.023Z,99504.64
2019-05-07T07:40:22.526Z,99502.91
2019-05-07T07:42:54.590Z,99497.16
2019-05-07T07:45:25.826Z,99489.44
2019-05-07T07:47:57.276Z,99491.00
2019-05-07T07:50:28.815Z,99489.05
2019-05-07T07:53:02.330Z,99479.20
2019-05-07T07:55:34.548Z,99485.10
2019-05-07T07:58:07.599Z,99477.43
2019-05-07T08:00:49.501Z,99471.33
2019-05-07T08:03:22.600Z,99463.09
2019-05-07T08:05:53.760Z,99461.83
2019-05-07T08:08:25.201Z,99459.29
2019-05-07T08:10:56.352Z,99461.80
2019-05-07T08:13:27.704Z,99454.31
2019-05-07T08:15:59.154Z,99463.89
2019-05-07T08:18:32.609Z,99468.59
2019-05-07T08:21:03.493Z,99469.63
2019-05-07T08:23:35.055Z,99475.96
2019-05-07T08:26:06.096Z,99474.95
2019-05-07T08:28:37.023Z,99472.27
2019-05-07T08:31:18.828Z,99468.22
2019-05-07T08:34:03.707Z,99471.27
2019-05-07T08:36:35.774Z,99470.02
2019-05-07T08:39:08.665Z,99466.66
2019-05-07T08:41:39.638Z,99470.94
2019-05-07T08:44:15.765Z,99459.77
2019-05-07T08:46:49.183Z,99456.34
2019-05-07T08:49:33.463Z,99463.75
2019-05-07T08:52:03.775Z,99457.79
2019-05-07T08:54:35.217Z,99445.82
2019-05-07T08:57:06.253Z,99449.59
2019-05-07T08:59:37.704Z,99443.48
2019-05-07T09:02:08.923Z,99440.38
2019-05-07T09:04:41.740Z,99439.30
2019-05-07T09:07:13.261Z,99430.75
2019-05-07T09:09:44.654Z,99429.47
2019-05-07T09:12:15.692Z,99437.53
2019-05-07T09:14:46.691Z,99434.61
2019-05-07T09:17:18.193Z,99429.57
2019-05-07T09:19:52.183Z,99429.39
2019-05-07T09:22:23.140Z,99437.44
2019-05-07T09:24:54.302Z,99432.95
2019-05-07T09:27:27.277Z,99434.80
2019-05-07T09:30:03.061Z,99422.23
2019-05-07T09:32:37.473Z,99421.92
2019-05-07T09:35:12.388Z,99423.02
2019-05-07T09:37:43.585Z,99420.15
2019-05-07T09:40:14.909Z,99418.95
2019-05-07T09:42:46.164Z,99413.53
2019-05-07T09:45:17.606Z,99419.53
2019-05-07T09:47:48.972Z,99416.22
2019-05-07T09:50:21.887Z,99414.63
2019-05-07T09:52:53.199Z,99406.96
2019-05-07T09:55:24.462Z,99409.66
2019-05-07T09:57:55.600Z,99412.14
2019-05-07T10:00:27.058Z,99411.99
2019-05-07T10:02:58.425Z,99412.60
2019-05-07T10:05:31.953Z,99411.59
2019-05-07T10:08:02.591Z,99418.30
2019-05-07T10:10:33.700Z,99411.08
2019-05-07T10:13:12.085Z,99413.44
2019-05-07T10:15:42.866Z,99412.77
2019-05-07T10:18:15.844Z,99413.67
2019-05-07T10:20:47.194Z,99414.80
2019-05-07T10:23:22.991Z,99410.73
2019-05-07T10:25:53.999Z,99410.31
2019-05-07T10:28:25.046Z,99401.30
2019-05-07T10:30:56.603Z,99403.42
2019-05-07T10:33:27.849Z,99395.70
2019-05-07T10:36:01.937Z,99397.05
2019-05-07T10:38:33.420Z,99388.47
2019-05-07T10:41:04.772Z,99385.27
2019-05-07T10:43:36.138Z,99397.97
2019-05-07T10:46:24.079Z,99392.91
2019-05-07T10:49:09.659Z,99392.80
2019-05-07T10:51:42.539Z,99399.25
2019-05-07T10:54:13.791Z,99397.11
2019-05-07T10:56:45.146Z,99401.28
2019-05-07T10:59:16.496Z,99402.33
2019-05-07T11:01:51.875Z,99396.43
2019-05-07T11:04:22.482Z,99395.68
2019-05-07T11:06:53.831Z,99404.61
2019-05-07T11:09:25.284Z,99396.75
2019-05-07T11:11:56.737Z,99399.48
2019-05-07T11:14:27.981Z,99397.33
2019-05-07T11:17:02.618Z,99395.98
2019-05-07T11:19:33.290Z,99386.96
2019-05-07T11:22:04.295Z,99383.58
2019-05-07T11:24:35.758Z,99383.09
2019-05-07T11:27:06.992Z,99391.67
2019-05-07T11:29:38.350Z,99382.09
2019-05-07T11:32:09.803Z,99384.91
2019-05-07T11:34:42.888Z,99393.14
2019-05-07T11:37:14.264Z,99388.69
2019-05-07T11:39:45.795Z,99379.00
2019-05-07T11:42:22.009Z,99383.33
2019-05-07T11:44:54.983Z,99376.04
2019-05-07T11:47:31.909Z,99379.31
2019-05-07T11:50:22.622Z,99378.86
2019-05-07T11:53:01.575Z,99385.77
2019-05-07T11:55:33.030Z,99379.03
2019-05-07T11:58:05.339Z,99382.44
2019-05-07T12:00:53.856Z,99374.42
2019-05-07T12:03:25.349Z,99367.25
2019-05-07T12:05:56.729Z,99379.52
2019-05-07T12:08:39.331Z,99384.14
2019-05-07T12:11:02.345Z,99383.50
2019-05-07T12:13:33.686Z,99383.77
2019-05-07T12:16:04.835Z,99378.59
2019-05-07T12:18:36.168Z,99383.27
2019-05-07T12:21:20.015Z,99384.61
2019-05-07T12:23:42.165Z,99379.06
2019-05-07T12:26:13.398Z,99383.29
2019-05-07T12:28:45.070Z,99371.62
2019-05-07T12:31:35.014Z,99373.77
2019-05-07T12:34:08.641Z,99364.77
2019-05-07T12:36:40.077Z,99368.28
2019-05-07T12:39:12.813Z,99359.81
2019-05-07T12:41:44.349Z,99356.85
2019-05-07T12:44:15.885Z,99354.11
2019-05-07T12:46:48.049Z,99339.61
2019-05-07T12:49:19.198Z,99338.13
2019-05-07T12:51:55.558Z,99339.39
2019-05-07T12:54:28.567Z,99330.03
2019-05-07T12:57:00.101Z,99324.44
2019-05-07T12:59:32.218Z,99321.11
2019-05-07T13:02:21.404Z,99324.64
2019-05-07T13:04:41.757Z,99316.94
2019-05-07T13:07:14.519Z,99312.14
2019-05-07T13:09:46.067Z,99308.44
2019-05-07T13:12:17.210Z,99303.75
2019-05-07T13:14:48.325Z,99297.39
2019-05-07T13:17:19.709Z,99295.30
2019-05-07T13:19:52.443Z,99292.97
2019-05-07T13:22:24.248Z,99299.89
2019-05-07T13:24:55.770Z,99296.59
2019-05-07T13:27:28.306Z,99290.25
2019-05-07T13:30:02.373Z,99291.28
2019-05-07T13:32:32.968Z,99289.61
2019-05-07T13:35:06.059Z,99299.45
2019-05-07T13:37:41.895Z,99299.70
2019-05-07T13:40:34.229Z,99301.31
2019-05-07T13:43:15.950Z,99303.83
2019-05-07T13:45:49.124Z,99304.17
2019-05-07T13:48:25.138Z,99308.44
2019-05-07T13:50:58.176Z,99318.19
2019-05-07T13:53:32.311Z,99312.59
2019-05-07T13:56:03.791Z,99322.63
2019-05-07T13:58:36.603Z,99326.73
2019-05-07T14:01:12.317Z,99330.70
2019-05-07T14:03:43.676Z,99326.38
2019-05-07T14:06:16.761Z,99328.02
2019-05-07T14:08:48.137Z,99320.79
2019-05-07T14:11:22.407Z,99326.88
2019-05-07T14:13:53.687Z,99315.27
2019-05-07T14:16:25.021Z,99322.77
2019-05-07T14:18:56.714Z,99310.46
2019-05-07T14:21:28.865Z,99327.72
2019-05-07T14:24:01.450Z,99317.47
2019-05-07T14:26:32.814Z,99324.36
2019-05-07T14:29:04.758Z,99330.77
2019-05-07T14:31:36.032Z,99327.31
2019-05-07T14:34:26.108Z,99325.14
2019-05-07T14:37:01.965Z,99340.88
2019-05-07T14:39:33.307Z,99338.36
2019-05-07T14:42:06.010Z,99329.61
2019-05-07T14:44:48.821Z,99347.66
2019-05-07T14:47:22.240Z,99348.52
2019-05-07T14:49:54.018Z,99351.02
2019-05-07T14:52:32.187Z,99353.55
2019-05-07T14:54:58.424Z,99359.89
2019-05-07T14:57:29.758Z,99363.92
2019-05-07T15:00:03.093Z,99368.83
2019-05-07T15:02:33.942Z,99351.48
2019-05-07T15:05:08.216Z,99356.02
2019-05-07T15:07:39.240Z,99341.13
2019-05-07T15:10:11.225Z,99335.75
2019-05-07T15:12:42.711Z,99339.31
2019-05-07T15:15:13.801Z,99339.91
2019-05-07T15:17:49.255Z,99336.70
2019-05-07T15:20:22.408Z,99336.98
2019-05-07T15:22:55.203Z,99339.44
2019-05-07T15:25:26.578Z,99353.55
2019-05-07T15:27:57.979Z,99335.23
2019-05-07T15:30:32.486Z,99369.48
2019-05-07T15:33:03.684Z,99377.41
2019-05-07T15:35:34.996Z,99383.47
2019-05-07T15:38:06.425Z,99381.84
2019-05-07T15:40:37.853Z,99395.68
2019-05-07T15:43:09.068Z,99402.39
2019-05-07T15:45:40.065Z,99422.10
2019-05-07T15:48:12.727Z,99427.30
2019-05-07T15:50:44.285Z,99436.51
2019-05-07T15:53:21.904Z,99437.37
2019-05-07T15:55:53.117Z,99448.18
2019-05-07T15:58:24.259Z,99453.70
2019-05-07T16:00:55.309Z,99472.38
2019-05-07T16:03:34.118Z,99487.45
2019-05-07T16:06:05.394Z,99463.77
2019-05-07T16:08:44.326Z,99465.23
2019-05-07T16:11:15.867Z,99503.77
2019-05-07T16:14:07.489Z,99506.15
2019-05-07T16:16:40.239Z,99484.94
2019-05-07T16:19:13.263Z,99480.89
2019-05-07T16:21:44.653Z,99482.23
2019-05-07T16:24:16.173Z,99492.92
2019-05-07T16:26:47.584Z,99484.22
2019-05-07T16:29:18.968Z,99463.83
2019-05-07T16:31:52.115Z,99468.23
2019-05-07T16:34:24.641Z,99454.48
2019-05-07T16:36:55.783Z,99452.87
2019-05-07T16:39:27.341Z,99459.47
2019-05-07T16:41:58.605Z,99461.70
2019-05-07T16:44:29.912Z,99454.78
2019-05-07T16:47:02.828Z,99441.96
2019-05-07T16:49:34.281Z,99455.81
2019-05-07T16:52:05.733Z,99454.95
2019-05-07T16:54:37.054Z,99456.95
2019-05-07T16:57:16.231Z,99462.29
2019-05-07T16:59:47.583Z,99454.50
2019-05-07T17:02:23.510Z,99453.18
2019-05-07T17:05:08.407Z,99459.66
2019-05-07T17:07:47.206Z,99448.67
2019-05-07T17:10:18.757Z,99445.97
2019-05-07T17:12:52.244Z,99445.72
2019-05-07T17:15:22.977Z,99452.23
2019-05-07T17:18:00.053Z,99457.66
2019-05-07T17:20:32.683Z,99455.63
2019-05-07T17:23:06.385Z,99463.03
2019-05-07T17:25:37.906Z,99462.45
2019-05-07T17:28:09.378Z,99466.63
2019-05-07T17:30:42.149Z,99464.72
2019-05-07T17:33:13.301Z,99466.14
2019-05-07T17:35:47.419Z,99467.98
2019-05-07T17:38:20.065Z,99468.27
2019-05-07T17:40:52.193Z,99465.02
2019-05-07T17:43:23.506Z,99466.70
2019-05-07T17:45:54.567Z,99471.80
2019-05-07T17:48:25.943Z,99476.98
2019-05-07T17:50:58.830Z,99468.89
2019-05-07T17:53:32.001Z,99474.48
2019-05-07T17:56:03.234Z,99475.30
2019-05-07T17:58:34.916Z,99477.51
2019-05-07T18:01:06.751Z,99477.70
2019-05-07T18:03:42.821Z,99476.31
2019-05-07T18:06:13.784Z,99483.20
2019-05-07T18:08:45.283Z,99480.89
2019-05-07T18:11:21.172Z,99478.82
2019-05-07T18:13:51.750Z,99474.63
2019-05-07T18:16:27.348Z,99483.92
2019-05-07T18:18:58.498Z,99478.46
2019-05-07T18:21:29.642Z,99473.47
2019-05-07T18:24:13.307Z,99466.45
2019-05-07T18:26:35.313Z,99474.86
2019-05-07T18:29:06.343Z,99475.28
2019-05-07T18:31:51.230Z,99474.08
2019-05-07T18:34:22.477Z,99475.11
2019-05-07T18:36:53.999Z,99477.61
2019-05-07T18:39:25.502Z,99473.96
2019-05-07T18:41:57.044Z,99472.94
2019-05-07T18:44:28.189Z,99474.77
2019-05-07T18:46:59.441Z,99478.56
2019-05-07T18:49:30.514Z,99480.45
2019-05-07T18:52:02.882Z,99477.13
2019-05-07T18:54:34.236Z,99483.92
2019-05-07T18:57:05.460Z,99472.39
2019-05-07T18:59:37.530Z,99471.06
2019-05-07T19:02:09.193Z,99466.52
2019-05-07T19:04:42.227Z,99468.94
2019-05-07T19:07:13.542Z,99467.42
2019-05-07T19:09:47.729Z,99468.37
2019-05-07T19:12:17.930Z,99475.22
2019-05-07T19:14:51.629Z,99470.79
2019-05-07T19:17:25.532Z,99466.06
2019-05-07T19:19:55.474Z,99460.78
2019-05-07T19:22:27.097Z,99465.09
2019-05-07T19:24:58.521Z,99462.81
2019-05-07T19:27:30.024Z,99458.19
2019-05-07T19:30:01.842Z,99455.47
2019-05-07T19:32:33.799Z,99454.13
2019-05-07T19:35:05.755Z,99451.75
2019-05-07T19:37:37.616Z,99447.77
2019-05-07T19:40:09.071Z,99445.63
2019-05-07T19:42:42.625Z,99438.20
2019-05-07T19:45:13.438Z,99442.88
2019-05-07T19:47:44.987Z,99435.61
2019-05-07T19:50:16.548Z,99437.59
2019-05-07T19:52:47.975Z,99445.53
2019-05-07T19:55:21.835Z,99448.31
2019-05-07T19:57:54.287Z,99449.81
2019-05-07T20:00:26.741Z,99456.70
2019-05-07T20:02:59.556Z,99465.33
2019-05-07T20:05:32.340Z,99465.86
2019-05-07T20:08:04.778Z,99476.63
2019-05-07T20:10:38.009Z,99473.55
2019-05-07T20:13:09.327Z,99477.03
2019-05-07T20:15:43.485Z,99480.91
2019-05-07T20:18:14.836Z,99481.36
2019-05-07T20:20:47.680Z,99479.00
2019-05-07T20:23:19.218Z,99477.72
2019-05-07T20:25:52.765Z,99478.73
2019-05-07T20:28:24.133Z,99481.13
2019-05-07T20:30:56.366Z,99485.92
2019-05-07T20:33:28.004Z,99498.06
2019-05-07T20:35:59.572Z,99501.23
2019-05-07T20:38:32.063Z,99511.20
2019-05-07T20:41:03.557Z,99517.55
2019-05-07T20:43:35.008Z,99513.66
2019-05-07T20:46:07.380Z,99522.73
2019-05-07T20:48:38.837Z,99525.91
2019-05-07T20:51:12.205Z,99531.55
2019-05-07T20:54:02.840Z,99530.48
2019-05-07T20:56:38.662Z,99531.01
2019-05-07T20:59:12.331Z,99536.42
2019-05-07T21:01:42.840Z,99536.95
2019-05-07T21:04:14.102Z,99533.72
2019-05-07T21:06:45.952Z,99539.28
2019-05-07T21:09:17.453Z,99537.66
2019-05-07T21:11:48.852Z,99531.00
2019-05-07T21:14:20.191Z,99523.25
2019-05-07T21:16:52.693Z,99537.94
2019-05-07T21:19:23.957Z,99541.33
2019-05-07T21:21:55.202Z,99542.45
2019-05-07T21:24:26.602Z,99542.83
2019-05-07T21:26:58.502Z,99544.81
2019-05-07T21:29:29.916Z,99550.18
2019-05-07T21:32:03.233Z,99550.18
2019-05-07T21:34:34.724Z,99560.13
2019-05-07T21:37:08.472Z,99556.45
2019-05-07T21:39:38.861Z,99551.27
2019-05-07T21:42:13.886Z,99549.19
2019-05-07T21:44:43.546Z,99550.51
2019-05-07T21:47:14.865Z,99551.00
2019-05-07T21:49:46.219Z,99561.93
2019-05-07T21:52:17.773Z,99563.48
2019-05-07T21:54:52.501Z,99562.25
2019-05-07T21:57:41.864Z,99562.25
2019-05-07T22:00:15.076Z,99556.23
2019-05-07T22:02:48.028Z,99559.41
2019-05-07T22:05:19.625Z,99544.48
2019-05-07T22:07:54.224Z,99550.05
2019-05-07T22:10:23.972Z,99550.38
2019-05-07T22:12:55.270Z,99548.22
2019-05-07T22:15:26.740Z,99558.56
2019-05-07T22:17:58.432Z,99557.83
2019-05-07T22:20:31.440Z,99551.48
2019-05-07T22:23:02.943Z,99552.11
2019-05-07T22:25:34.230Z,99545.29
2019-05-07T22:28:06.888Z,99533.19
2019-05-07T22:30:46.232Z,99534.66
2019-05-07T22:33:19.339Z,99536.70
2019-05-07T22:35:52.255Z,99539.86
2019-05-07T22:38:43.784Z,99533.76
2019-05-07T22:41:16.757Z,99542.55
2019-05-07T22:43:48.826Z,99549.28
2019-05-07T22:46:22.285Z,99540.74
2019-05-07T22:48:53.989Z,99546.84
2019-05-07T22:51:25.338Z,99550.48
2019-05-07T22:53:57.920Z,99557.31
2019-05-07T22:56:46.986Z,99560.47
2019-05-07T22:59:18.396Z,99566.30
2019-05-07T23:01:51.670Z,99573.48
2019-05-07T23:04:23.613Z,99583.06
2019-05-07T23:06:54.644Z,99575.98
2019-05-07T23:09:25.700Z,99579.05
2019-05-07T23:11:57.155Z,99576.27
2019-05-07T23:14:28.507Z,99590.36
2019-05-07T23:17:02.235Z,99597.87
2019-05-07T23:19:33.115Z,99607.63
2019-05-07T23:22:04.698Z,99603.59
2019-05-07T23:24:36.043Z,99601.20
2019-05-07T23:27:07.514Z,99607.93
2019-05-07T23:29:38.926Z,99615.61
2019-05-07T23:32:12.543Z,99624.74
2019-05-07T23:34:43.496Z,99637.61
2019-05-07T23:37:14.963Z,99640.98
2019-05-07T23:39:48.268Z,99641.28
2019-05-07T23:42:21.316Z,99642.53
2019-05-07T23:44:52.867Z,99634.47
2019-05-07T23:47:24.456Z,99632.08
2019-05-07T23:49:56.114Z,99625.59
2019-05-07T23:52:27.879Z,99632.19
2019-05-07T23:54:59.536Z,99627.68
2019-05-07T23:57:32.533Z,99623.98
